Time;durP1;ratioP1;P1;durP2;ratioP2;P2;SDS_P1;SDS_P2;PMS_P1;PMS_P2;Temp;Humidity;BMP_temperature;BMP_pressure;BME280_temperature;BME280_humidity;BME280_pressure;Samples;Min_cycle;Max_cycle;Signal;HPM_P1;HPM_P2
2022/09/11 00:02:26;;;;;;;9.60;8.83;;;15.80;1.00;;;;;;6281801;28;20599;-57
2022/09/11 00:05:31;;;;;;;9.63;8.63;;;15.70;1.00;;;;;;6269348;28;20464;-56
2022/09/11 00:08:35;;;;;;;9.97;9.10;;;15.70;1.00;;;;;;6261139;28;20237;-56
2022/09/11 00:11:40;;;;;;;9.27;8.33;;;15.70;1.00;;;;;;6260200;28;20241;-58
2022/09/11 00:14:43;;;;;;;8.77;8.07;;;15.80;1.00;;;;;;6260519;28;20238;-57
2022/09/11 00:17:45;;;;;;;8.03;7.53;;;15.80;1.00;;;;;;6261971;28;20321;-56
2022/09/11 00:20:51;;;;;;;9.33;8.43;;;15.80;1.00;;;;;;6273080;28;20246;-57
2022/09/11 00:23:55;;;;;;;10.67;9.63;;;15.70;1.00;;;;;;6270905;28;20233;-57
2022/09/11 00:26:57;;;;;;;9.70;8.90;;;15.70;1.00;;;;;;6261150;28;20245;-55
2022/09/11 00:30:01;;;;;;;12.70;11.40;;;15.70;1.00;;;;;;6260420;28;20253;-57
2022/09/11 00:33:04;;;;;;;12.63;11.53;;;15.70;1.00;;;;;;6267435;28;20738;-57
2022/09/11 00:36:12;;;;;;;10.70;9.77;;;15.70;1.00;;;;;;6263475;28;20741;-57
2022/09/11 00:39:18;;;;;;;11.73;10.63;;;15.60;1.00;;;;;;6260682;28;20230;-56
2022/09/11 00:42:21;;;;;;;10.43;9.63;;;15.60;1.00;;;;;;6274687;28;20468;-56
2022/09/11 00:45:26;;;;;;;12.07;10.40;;;15.60;1.00;;;;;;6285335;28;20233;-56
2022/09/11 00:48:34;;;;;;;10.40;9.50;;;15.50;1.00;;;;;;6267318;28;20241;-56
2022/09/11 00:51:39;;;;;;;11.63;10.50;;;15.50;1.00;;;;;;6277301;28;20458;-56
2022/09/11 00:54:48;;;;;;;14.50;12.80;;;15.50;1.00;;;;;;6284197;28;20242;-55
2022/09/11 00:57:56;;;;;;;15.27;11.97;;;15.60;1.00;;;;;;6268242;28;20248;-56
2022/09/11 01:00:58;;;;;;;13.50;11.77;;;15.50;1.00;;;;;;6259119;28;20234;-56
2022/09/11 01:04:03;;;;;;;15.23;11.93;;;15.60;1.00;;;;;;6270155;28;20847;-56
2022/09/11 01:07:09;;;;;;;15.70;14.20;;;15.60;1.00;;;;;;6269494;28;20230;-56
2022/09/11 01:10:12;;;;;;;17.37;15.57;;;15.60;1.00;;;;;;6280608;28;20774;-56
2022/09/11 01:13:24;;;;;;;17.03;15.20;;;15.60;1.00;;;;;;6283864;28;20237;-57
2022/09/11 01:16:36;;;;;;;13.17;12.07;;;15.60;1.00;;;;;;6272789;28;20526;-56
2022/09/11 01:19:59;;;;;;;11.73;10.40;;;15.70;1.00;;;;;;6264326;28;20265;-57
2022/09/11 01:23:33;;;;;;;13.37;11.90;;;15.70;1.00;;;;;;6283808;28;20241;-57
2022/09/11 01:27:12;;;;;;;15.57;13.67;;;15.70;1.00;;;;;;6284453;28;20399;-56
2022/09/11 01:30:18;;;;;;;15.60;13.60;;;15.60;1.00;;;;;;6265970;28;20331;-56
2022/09/11 01:33:25;;;;;;;12.70;10.93;;;15.60;1.00;;;;;;6268100;28;20229;-57
2022/09/11 01:36:35;;;;;;;12.73;11.43;;;15.60;1.00;;;;;;6275030;28;20722;-56
2022/09/11 01:39:44;;;;;;;11.87;10.60;;;15.50;1.00;;;;;;6268791;28;20652;-57
2022/09/11 01:42:53;;;;;;;10.57;9.60;;;15.50;1.00;;;;;;6283720;28;20242;-56
2022/09/11 01:46:00;;;;;;;10.60;9.57;;;15.40;1.00;;;;;;6283995;28;20400;-56
2022/09/11 01:49:08;;;;;;;9.60;8.90;;;15.40;1.00;;;;;;6263103;28;20411;-56
2022/09/11 01:52:16;;;;;;;10.57;9.80;;;15.40;1.00;;;;;;6283852;28;20245;-56
2022/09/11 01:55:24;;;;;;;13.40;11.87;;;15.30;1.00;;;;;;6279902;28;20946;-57
2022/09/11 01:58:29;;;;;;;14.43;12.53;;;15.30;1.00;;;;;;6284195;28;20725;-57
2022/09/11 02:01:36;;;;;;;15.93;11.27;;;15.30;1.00;;;;;;6283650;28;20882;-56
2022/09/11 02:04:44;;;;;;;11.07;10.07;;;15.30;1.00;;;;;;6284653;28;20805;-56
2022/09/11 02:07:52;;;;;;;9.23;8.57;;;15.20;1.00;;;;;;6282594;28;20241;-58
2022/09/11 02:11:05;;;;;;;8.93;8.23;;;15.30;1.00;;;;;;6259167;28;20749;-57
2022/09/11 02:14:15;;;;;;;10.27;9.37;;;15.20;1.00;;;;;;6258423;28;20236;-57
2022/09/11 02:17:26;;;;;;;9.90;8.90;;;15.20;1.00;;;;;;6258628;28;20599;-57
2022/09/11 02:20:30;;;;;;;9.80;8.90;;;15.20;1.00;;;;;;6269969;28;20257;-56
2022/09/11 02:23:42;;;;;;;10.40;9.50;;;15.10;1.00;;;;;;6283065;28;20230;-57
2022/09/11 02:26:49;;;;;;;11.43;10.53;;;15.10;1.00;;;;;;6282469;28;20737;-58
2022/09/11 02:30:00;;;;;;;10.87;9.80;;;15.10;1.00;;;;;;6265413;28;20638;-57
2022/09/11 02:33:04;;;;;;;11.67;10.57;;;15.00;1.00;;;;;;6257115;28;20232;-55
2022/09/11 02:36:34;;;;;;;11.87;10.83;;;15.00;1.00;;;;;;6272984;28;20250;-56
2022/09/11 02:40:07;;;;;;;10.20;9.43;;;14.90;1.00;;;;;;6258883;28;20243;-56
2022/09/11 02:43:26;;;;;;;10.17;9.47;;;14.90;1.00;;;;;;6257133;28;20266;-56
2022/09/11 02:46:55;;;;;;;10.03;9.13;;;14.90;1.00;;;;;;6267837;28;20324;-56
2022/09/11 02:50:09;;;;;;;11.40;9.73;;;14.90;1.00;;;;;;6267345;28;20226;-56
2022/09/11 02:53:20;;;;;;;11.30;10.03;;;14.80;1.00;;;;;;6276270;28;20248;-56
2022/09/11 02:56:30;;;;;;;10.30;9.43;;;14.80;1.00;;;;;;6282840;28;20229;-57
2022/09/11 02:59:37;;;;;;;9.97;9.07;;;14.70;1.00;;;;;;6282565;28;20628;-57
2022/09/11 03:02:41;;;;;;;12.10;9.57;;;14.70;1.00;;;;;;6281239;28;20245;-58
2022/09/11 03:05:46;;;;;;;10.27;9.40;;;14.80;1.00;;;;;;6274101;28;20233;-58
2022/09/11 03:08:50;;;;;;;11.40;10.37;;;14.80;1.00;;;;;;6279865;28;20260;-57
2022/09/11 03:11:53;;;;;;;11.87;10.83;;;14.80;1.00;;;;;;6281804;28;20237;-57
2022/09/11 03:14:57;;;;;;;12.23;11.10;;;14.80;1.00;;;;;;6260678;28;20276;-57
2022/09/11 03:18:00;;;;;;;13.80;12.50;;;14.80;1.00;;;;;;6257616;28;20253;-58
2022/09/11 03:21:05;;;;;;;12.90;11.60;;;14.80;1.00;;;;;;6271289;28;20391;-57
2022/09/11 03:24:09;;;;;;;14.40;11.80;;;14.80;1.00;;;;;;6281982;28;20260;-57
2022/09/11 03:27:15;;;;;;;12.87;11.87;;;14.80;1.00;;;;;;6281759;28;20229;-59
2022/09/11 03:30:21;;;;;;;13.47;12.17;;;14.70;1.00;;;;;;6281387;28;20753;-57
2022/09/11 03:33:24;;;;;;;13.77;12.43;;;14.70;1.00;;;;;;6259269;28;20275;-56
2022/09/11 03:36:33;;;;;;;13.80;12.50;;;14.70;1.00;;;;;;6280527;28;20737;-57
2022/09/11 03:39:36;;;;;;;12.83;11.67;;;14.70;1.00;;;;;;6271673;28;20242;-56
2022/09/11 03:42:38;;;;;;;16.20;14.50;;;14.60;1.00;;;;;;6268099;28;20725;-57
2022/09/11 03:45:41;;;;;;;17.80;15.37;;;14.50;1.00;;;;;;6279825;28;20240;-57
2022/09/11 03:48:45;;;;;;;15.50;14.07;;;14.50;1.00;;;;;;6280993;28;20482;-57
2022/09/11 03:51:50;;;;;;;15.77;14.13;;;14.40;1.00;;;;;;6278399;28;20610;-56
2022/09/11 03:54:53;;;;;;;15.67;14.07;;;14.30;1.00;;;;;;6284118;28;20249;-56
2022/09/11 03:57:57;;;;;;;15.47;14.00;;;14.30;1.00;;;;;;6285144;28;20364;-58
2022/09/11 04:00:59;;;;;;;17.07;13.93;;;14.30;1.00;;;;;;6281988;28;20632;-57
2022/09/11 04:04:03;;;;;;;15.67;14.23;;;14.30;1.00;;;;;;6281304;28;20696;-57
2022/09/11 04:07:07;;;;;;;19.87;17.73;;;14.30;1.00;;;;;;6257675;28;20230;-58
2022/09/11 04:10:11;;;;;;;28.00;23.70;;;14.20;1.00;;;;;;6272606;28;20241;-57
2022/09/11 04:13:15;;;;;;;20.40;18.03;;;14.20;1.00;;;;;;6285455;28;20229;-56
2022/09/11 04:16:19;;;;;;;21.47;19.07;;;14.10;1.00;;;;;;6282917;28;20229;-56
2022/09/11 04:19:22;;;;;;;19.13;16.53;;;14.10;1.00;;;;;;6277724;28;20236;-56
2022/09/11 04:22:27;;;;;;;22.23;17.40;;;14.10;1.00;;;;;;6283994;28;20243;-57
2022/09/11 04:25:31;;;;;;;20.33;17.37;;;14.10;1.00;;;;;;6275817;28;20756;-56
2022/09/11 04:28:34;;;;;;;21.47;17.50;;;14.00;1.00;;;;;;6278982;28;20714;-57
2022/09/11 04:31:39;;;;;;;27.43;19.80;;;14.00;1.00;;;;;;6277674;28;20661;-57
2022/09/11 04:34:42;;;;;;;22.63;17.17;;;14.00;1.00;;;;;;6267957;28;20244;-57
2022/09/11 04:37:48;;;;;;;23.03;17.67;;;14.00;1.00;;;;;;6264231;28;20241;-57
2022/09/11 04:40:52;;;;;;;18.17;15.03;;;14.10;1.00;;;;;;6284074;28;20744;-56
2022/09/11 04:43:56;;;;;;;19.83;15.87;;;14.10;1.00;;;;;;6273303;28;20384;-56
2022/09/11 04:47:05;;;;;;;20.50;16.40;;;14.20;1.00;;;;;;6279968;28;20456;-56
2022/09/11 04:50:09;;;;;;;27.63;16.87;;;14.20;1.00;;;;;;6271829;28;20237;-57
2022/09/11 04:53:13;;;;;;;27.13;18.73;;;14.30;1.00;;;;;;6280645;28;20229;-56
2022/09/11 04:56:17;;;;;;;22.80;17.43;;;14.20;1.00;;;;;;6280854;28;20229;-56
2022/09/11 04:59:22;;;;;;;25.67;18.67;;;14.20;1.00;;;;;;6274981;28;20241;-55
2022/09/11 05:02:25;;;;;;;25.73;18.90;;;14.20;1.00;;;;;;6279599;28;20237;-56
2022/09/11 05:05:28;;;;;;;24.60;17.73;;;14.30;1.00;;;;;;6277527;28;20229;-56
2022/09/11 05:08:33;;;;;;;23.83;17.60;;;14.30;1.00;;;;;;6275681;28;20303;-57
2022/09/11 05:11:37;;;;;;;21.93;16.17;;;14.30;1.00;;;;;;6282587;28;20265;-56
2022/09/11 05:14:40;;;;;;;30.23;19.63;;;14.30;1.00;;;;;;6268467;28;20280;-57
2022/09/11 05:17:44;;;;;;;28.27;18.53;;;14.40;1.00;;;;;;6281681;28;20237;-57
2022/09/11 05:20:47;;;;;;;25.03;18.73;;;14.40;1.00;;;;;;6266008;28;20264;-57
2022/09/11 05:23:52;;;;;;;29.37;21.83;;;14.50;1.00;;;;;;6285098;28;20240;-57
2022/09/11 05:26:57;;;;;;;28.50;21.10;;;14.50;1.00;;;;;;6281451;28;20233;-56
2022/09/11 05:30:01;;;;;;;33.20;21.83;;;14.60;1.00;;;;;;6274830;28;20241;-56
2022/09/11 05:33:05;;;;;;;32.03;23.43;;;14.60;1.00;;;;;;6278844;28;20241;-56
2022/09/11 05:36:09;;;;;;;32.70;23.83;;;14.70;1.00;;;;;;6266797;28;20640;-57
2022/09/11 05:39:13;;;;;;;29.90;23.57;;;14.80;1.00;;;;;;6275904;28;20257;-58
2022/09/11 05:42:16;;;;;;;29.00;22.83;;;14.80;1.00;;;;;;6268662;28;20234;-58
2022/09/11 05:45:19;;;;;;;33.73;24.87;;;14.80;1.00;;;;;;6261025;28;20562;-57
2022/09/11 05:48:22;;;;;;;31.27;22.67;;;14.90;1.00;;;;;;6265698;28;20225;-57
2022/09/11 05:51:25;;;;;;;29.27;22.90;;;14.90;1.00;;;;;;6281707;28;20237;-57
2022/09/11 05:54:29;;;;;;;29.27;22.70;;;14.90;1.00;;;;;;6279594;28;20240;-56
2022/09/11 05:57:32;;;;;;;31.67;23.47;;;15.00;1.00;;;;;;6279838;28;20312;-57
2022/09/11 06:00:39;;;;;;;33.50;23.77;;;15.00;1.00;;;;;;6274615;28;20262;-57
2022/09/11 06:03:43;;;;;;;32.83;23.87;;;15.10;1.00;;;;;;6276422;28;20237;-57
2022/09/11 06:06:47;;;;;;;32.80;22.80;;;15.20;1.00;;;;;;6273752;28;20324;-57
2022/09/11 06:09:51;;;;;;;33.93;22.73;;;15.30;1.00;;;;;;6276125;28;20702;-58
2022/09/11 06:12:54;;;;;;;28.50;21.87;;;15.30;1.00;;;;;;6274441;28;20315;-58
2022/09/11 06:15:57;;;;;;;28.67;21.10;;;15.30;1.00;;;;;;6270150;28;20238;-57
2022/09/11 06:19:02;;;;;;;26.13;20.63;;;15.40;1.00;;;;;;6266728;28;20259;-57
2022/09/11 06:22:06;;;;;;;28.80;21.30;;;15.50;1.00;;;;;;6272593;28;20240;-57
2022/09/11 06:25:11;;;;;;;27.30;21.03;;;15.50;1.00;;;;;;6279867;28;20225;-57
2022/09/11 06:28:16;;;;;;;31.10;22.03;;;15.60;1.00;;;;;;6261541;28;20232;-57
2022/09/11 06:31:31;;;;;;;28.90;21.97;;;15.70;1.00;;;;;;6279659;28;20229;-57
2022/09/11 06:34:34;;;;;;;24.90;20.83;;;15.90;1.00;;;;;;6274925;28;20230;-57
2022/09/11 06:37:37;;;;;;;28.63;20.83;;;15.90;1.00;;;;;;6274843;28;20233;-57
2022/09/11 06:40:41;;;;;;;27.20;20.83;;;16.00;1.00;;;;;;6274643;28;20237;-59
2022/09/11 06:43:44;;;;;;;21.73;18.93;;;16.00;1.00;;;;;;6273254;28;20245;-58
2022/09/11 06:46:47;;;;;;;23.50;18.80;;;16.10;1.00;;;;;;6275621;28;20248;-57
2022/09/11 06:49:50;;;;;;;20.90;17.90;;;16.20;1.00;;;;;;6276517;28;20233;-57
2022/09/11 06:52:54;;;;;;;22.20;19.67;;;16.20;1.00;;;;;;6278731;28;20237;-57
2022/09/11 06:56:05;;;;;;;27.10;21.20;;;16.10;1.00;;;;;;6281693;28;20721;-56
2022/09/11 06:59:13;;;;;;;24.13;20.20;;;16.20;1.00;;;;;;6276059;28;20217;-58
2022/09/11 07:02:16;;;;;;;21.17;18.63;;;16.10;1.00;;;;;;6276366;28;20728;-58
2022/09/11 07:05:32;;;;;;;24.80;18.93;;;16.10;1.00;;;;;;6278919;28;20306;-56
2022/09/11 07:08:35;;;;;;;22.00;19.20;;;16.10;1.00;;;;;;6272439;28;20750;-56
2022/09/11 07:11:42;;;;;;;19.17;17.07;;;16.10;1.00;;;;;;6278239;28;20716;-56
2022/09/11 07:14:46;;;;;;;21.60;18.13;;;16.20;1.00;;;;;;6280334;28;20693;-57
2022/09/11 07:17:49;;;;;;;18.83;16.80;;;16.20;1.00;;;;;;6277173;28;20233;-58
2022/09/11 07:20:52;;;;;;;23.20;18.30;;;16.20;1.00;;;;;;6279672;28;20233;-56
2022/09/11 07:23:58;;;;;;;23.93;19.03;;;16.20;1.00;;;;;;6283327;28;20757;-58
2022/09/11 07:27:02;;;;;;;22.10;18.07;;;16.20;1.00;;;;;;6278470;28;20233;-57
2022/09/11 07:30:06;;;;;;;20.53;18.33;;;16.30;1.00;;;;;;6276290;28;20229;-58
2022/09/11 07:33:09;;;;;;;19.90;17.50;;;16.30;1.00;;;;;;6279879;28;20230;-57
2022/09/11 07:36:13;;;;;;;17.53;15.73;;;16.40;1.00;;;;;;6280061;28;20620;-58
2022/09/11 07:39:17;;;;;;;17.43;15.60;;;16.50;1.00;;;;;;6270449;28;20249;-58
2022/09/11 07:42:21;;;;;;;17.33;14.80;;;16.60;1.00;;;;;;6269415;28;20246;-58
2022/09/11 07:45:26;;;;;;;17.30;15.60;;;16.80;1.00;;;;;;6281800;28;20233;-57
2022/09/11 07:48:30;;;;;;;18.33;15.60;;;17.00;1.00;;;;;;6282947;28;20238;-57
2022/09/11 07:51:34;;;;;;;16.63;14.67;;;17.20;1.00;;;;;;6282798;28;20252;-58
2022/09/11 07:54:36;;;;;;;17.43;15.23;;;17.30;1.00;;;;;;6278465;28;20427;-58
2022/09/11 07:57:41;;;;;;;16.40;14.67;;;17.50;1.00;;;;;;6279531;28;20244;-59
2022/09/11 08:00:44;;;;;;;17.27;14.23;;;17.70;1.00;;;;;;6284232;28;20245;-58
2022/09/11 08:03:48;;;;;;;14.90;13.40;;;17.80;1.00;;;;;;6277906;28;20249;-59
2022/09/11 08:06:51;;;;;;;16.03;14.20;;;17.90;1.00;;;;;;6284228;28;20260;-58
2022/09/11 08:09:54;;;;;;;18.10;14.17;;;18.00;1.00;;;;;;6270683;28;20241;-59
2022/09/11 08:13:19;;;;;;;16.33;13.93;;;18.10;1.00;;;;;;6282847;28;20324;-58
2022/09/11 08:16:25;;;;;;;15.90;14.30;;;18.20;1.00;;;;;;6275835;28;20229;-57
2022/09/11 08:19:28;;;;;;;14.80;13.50;;;18.10;1.00;;;;;;6276021;28;20246;-57
2022/09/11 08:22:31;;;;;;;16.40;14.67;;;18.10;1.00;;;;;;6274916;28;20294;-57
2022/09/11 08:25:35;;;;;;;17.10;13.90;;;18.20;1.00;;;;;;6285824;28;20259;-58
2022/09/11 08:28:41;;;;;;;17.40;13.57;;;18.30;1.00;;;;;;6276920;28;20233;-59
2022/09/11 08:31:46;;;;;;;13.43;12.13;;;18.40;1.00;;;;;;6276382;28;20238;-57
2022/09/11 08:34:49;;;;;;;17.00;14.30;;;18.50;1.00;;;;;;6274182;28;20264;-58
2022/09/11 08:37:52;;;;;;;17.17;13.93;;;18.50;1.00;;;;;;6278029;28;20247;-59
2022/09/11 08:41:11;;;;;;;15.40;13.90;;;18.60;1.00;;;;;;6279747;28;20265;-58
2022/09/11 08:44:22;;;;;;;15.77;13.90;;;18.50;1.00;;;;;;6284126;28;20230;-57
2022/09/11 08:47:28;;;;;;;14.03;12.53;;;18.40;1.00;;;;;;6284621;28;20237;-57
2022/09/11 08:50:35;;;;;;;15.17;13.77;;;18.30;1.00;;;;;;6274045;28;20237;-58
2022/09/11 08:53:38;;;;;;;15.97;14.10;;;18.30;1.00;;;;;;6278773;28;20237;-58
2022/09/11 08:56:42;;;;;;;16.13;13.90;;;18.30;1.00;;;;;;6283112;28;20485;-57
2022/09/11 09:00:03;;;;;;;13.67;12.43;;;18.40;1.00;;;;;;6280650;28;20241;-58
2022/09/11 09:03:40;;;;;;;12.93;11.83;;;18.50;1.00;;;;;;6278206;28;20233;-58
2022/09/11 09:06:57;;;;;;;13.43;12.23;;;18.60;1.00;;;;;;6279330;28;20229;-59
2022/09/11 09:10:07;;;;;;;13.53;12.13;;;18.80;1.00;;;;;;6273420;28;20323;-59
2022/09/11 09:13:26;;;;;;;13.17;11.97;;;18.90;1.00;;;;;;6281764;28;20234;-58
2022/09/11 09:16:41;;;;;;;12.83;11.53;;;18.90;1.00;;;;;;6281771;28;20601;-58
2022/09/11 09:19:47;;;;;;;12.37;11.20;;;18.80;1.00;;;;;;6274790;28;20242;-59
2022/09/11 09:22:54;;;;;;;12.60;11.50;;;18.90;1.00;;;;;;6280408;28;20241;-59
2022/09/11 09:25:57;;;;;;;12.17;10.97;;;19.00;1.00;;;;;;6282777;28;20236;-57
2022/09/11 09:29:04;;;;;;;12.23;11.13;;;19.00;1.00;;;;;;6277257;28;20232;-57
2022/09/11 09:32:16;;;;;;;12.07;10.77;;;19.10;1.00;;;;;;6282856;28;20609;-57
2022/09/11 09:35:25;;;;;;;11.37;10.30;;;19.30;1.00;;;;;;6278030;28;20392;-59
2022/09/11 09:38:30;;;;;;;10.70;9.67;;;19.30;1.00;;;;;;6275315;28;20320;-57
2022/09/11 09:42:04;;;;;;;11.40;10.40;;;19.20;1.00;;;;;;6277203;28;20656;-57
2022/09/11 09:45:27;;;;;;;12.33;11.10;;;19.20;1.00;;;;;;6273328;28;20584;-59
2022/09/11 09:48:37;;;;;;;11.47;10.30;;;19.10;1.00;;;;;;6275443;28;20794;-58
2022/09/11 09:51:40;;;;;;;12.53;11.37;;;19.00;1.00;;;;;;6279363;28;20745;-58
2022/09/11 09:54:48;;;;;;;12.27;11.00;;;19.00;1.00;;;;;;6274484;28;20244;-58
2022/09/11 09:57:51;;;;;;;12.30;11.30;;;19.00;1.00;;;;;;6277158;28;20243;-58
2022/09/11 10:00:54;;;;;;;11.77;10.80;;;19.10;1.00;;;;;;6271685;28;20237;-58
2022/09/11 10:04:11;;;;;;;12.00;10.90;;;19.40;1.00;;;;;;6278475;28;20221;-59
2022/09/11 10:07:23;;;;;;;11.33;10.33;;;19.50;1.00;;;;;;6281527;28;20233;-58
2022/09/11 10:10:31;;;;;;;10.40;9.60;;;19.70;1.00;;;;;;6279258;28;20324;-59
2022/09/11 10:13:37;;;;;;;10.90;10.00;;;19.70;1.00;;;;;;6273221;28;20495;-58
2022/09/11 10:16:48;;;;;;;9.53;8.77;;;19.60;1.00;;;;;;6282814;28;20802;-59
2022/09/11 10:19:55;;;;;;;10.03;9.30;;;19.60;1.00;;;;;;6278908;28;20237;-58
2022/09/11 10:23:22;;;;;;;12.10;10.97;;;19.60;1.00;;;;;;6276479;28;20716;-59
2022/09/11 10:26:32;;;;;;;11.90;10.90;;;19.60;1.00;;;;;;6279382;28;20245;-58
2022/09/11 10:29:35;;;;;;;12.03;11.03;;;19.60;1.00;;;;;;6277126;28;20232;-58
2022/09/11 10:32:42;;;;;;;11.57;10.47;;;19.60;1.00;;;;;;6269346;28;20245;-58
2022/09/11 10:35:53;;;;;;;12.10;11.00;;;19.90;1.00;;;;;;6272725;28;20237;-58
2022/09/11 10:39:00;;;;;;;10.70;9.87;;;20.30;1.00;;;;;;6278418;28;20237;-58
2022/09/11 10:42:15;;;;;;;11.07;10.07;;;20.60;1.00;;;;;;6271275;28;20246;-59
2022/09/11 10:45:20;;;;;;;10.47;9.57;;;20.80;1.00;;;;;;6280459;28;20230;-59
2022/09/11 10:48:24;;;;;;;10.07;9.23;;;21.00;1.00;;;;;;6276834;28;20619;-57
2022/09/11 10:51:30;;;;;;;10.83;9.93;;;21.00;1.00;;;;;;6278667;28;20316;-60
2022/09/11 10:55:08;;;;;;;9.87;8.97;;;21.00;1.00;;;;;;6275065;28;20234;-60
2022/09/11 10:58:15;;;;;;;10.50;9.60;;;20.90;1.00;;;;;;6280023;28;20738;-58
2022/09/11 11:01:18;;;;;;;10.80;9.90;;;20.70;1.00;;;;;;6282906;28;20581;-58
2022/09/11 11:04:21;;;;;;;11.30;10.30;;;20.50;1.00;;;;;;6282168;28;20282;-57
2022/09/11 11:07:47;;;;;;;10.03;9.20;;;20.20;1.00;;;;;;6284963;28;20267;-58
2022/09/11 11:11:04;;;;;;;8.83;8.23;;;20.10;1.00;;;;;;6276902;28;20444;-58
2022/09/11 11:14:31;;;;;;;9.73;9.03;;;19.90;1.00;;;;;;6284576;28;20217;-58
2022/09/11 11:17:42;;;;;;;10.20;9.47;;;19.80;1.00;;;;;;6281803;28;20233;-58
2022/09/11 11:20:52;;;;;;;10.30;9.37;;;19.80;1.00;;;;;;6283523;28;20593;-58
2022/09/11 11:24:11;;;;;;;9.27;8.53;;;19.80;1.00;;;;;;6284495;28;20221;-57
2022/09/11 11:27:35;;;;;;;9.83;8.87;;;19.70;1.00;;;;;;6277928;28;20468;-58
2022/09/11 11:30:47;;;;;;;9.03;8.43;;;19.60;1.00;;;;;;6282223;28;20241;-58
2022/09/11 11:34:08;;;;;;;9.30;8.57;;;19.60;1.00;;;;;;6281422;28;20256;-58
2022/09/11 11:37:16;;;;;;;7.40;6.90;;;19.70;1.00;;;;;;6272679;28;20245;-59
2022/09/11 11:40:26;;;;;;;7.90;7.30;;;20.00;1.00;;;;;;6276726;28;20242;-58
2022/09/11 11:43:34;;;;;;;9.43;8.63;;;20.30;1.00;;;;;;6278162;28;20311;-58
2022/09/11 11:46:42;;;;;;;9.30;8.53;;;20.60;1.00;;;;;;6277570;28;20241;-59
2022/09/11 11:49:58;;;;;;;9.23;8.53;;;20.90;1.00;;;;;;6278161;28;20610;-58
2022/09/11 11:53:07;;;;;;;8.03;7.47;;;21.10;1.00;;;;;;6274397;28;20237;-59
2022/09/11 11:56:20;;;;;;;7.57;6.97;;;21.00;1.00;;;;;;6286162;28;20240;-59
2022/09/11 11:59:30;;;;;;;7.20;6.80;;;20.90;1.00;;;;;;6276068;28;20225;-59
2022/09/11 12:02:42;;;;;;;6.63;6.23;;;20.80;1.00;;;;;;6272226;28;20455;-59
2022/09/11 12:05:50;;;;;;;7.07;6.60;;;20.90;1.00;;;;;;6284261;28;20234;-58
2022/09/11 12:08:53;;;;;;;7.73;7.03;;;21.00;1.00;;;;;;6279088;28;20596;-59
2022/09/11 12:12:05;;;;;;;6.53;6.17;;;21.20;1.00;;;;;;6280619;28;20241;-59
2022/09/11 12:15:18;;;;;;;6.70;6.20;;;21.60;1.00;;;;;;6277984;28;20229;-57
2022/09/11 12:18:24;;;;;;;7.60;6.33;;;21.80;1.00;;;;;;6280264;28;20248;-59
2022/09/11 12:21:54;;;;;;;6.17;5.77;;;21.90;1.00;;;;;;6280209;28;20229;-59
2022/09/11 12:24:58;;;;;;;6.00;5.67;;;21.90;1.00;;;;;;6282963;28;20221;-58
2022/09/11 12:28:21;;;;;;;6.40;5.80;;;21.80;1.00;;;;;;6286110;28;20721;-62
2022/09/11 12:31:25;;;;;;;7.03;6.60;;;21.70;1.00;;;;;;6274195;28;20233;-59
2022/09/11 12:35:00;;;;;;;7.10;6.80;;;21.50;1.00;;;;;;6275764;28;20233;-58
2022/09/11 12:38:20;;;;;;;7.63;7.03;;;21.30;1.00;;;;;;6278631;28;20681;-59
2022/09/11 12:41:28;;;;;;;7.07;6.57;;;21.10;1.00;;;;;;6277686;28;20703;-58
2022/09/11 12:44:56;;;;;;;7.90;7.30;;;21.00;1.00;;;;;;6279201;28;20686;-58
2022/09/11 12:48:09;;;;;;;7.20;6.80;;;21.00;1.00;;;;;;6275033;28;20225;-59
2022/09/11 12:51:21;;;;;;;6.80;6.47;;;21.00;1.00;;;;;;6280575;28;20342;-58
2022/09/11 12:54:26;;;;;;;6.60;6.03;;;21.00;1.00;;;;;;6279353;28;20234;-59
2022/09/11 12:57:34;;;;;;;6.67;6.07;;;20.90;1.00;;;;;;6274388;28;20272;-58
2022/09/11 13:00:42;;;;;;;6.23;5.90;;;20.80;1.00;;;;;;6278667;28;20259;-58
2022/09/11 13:03:55;;;;;;;6.13;5.73;;;20.70;1.00;;;;;;6282382;28;20261;-59
2022/09/11 13:07:01;;;;;;;6.07;5.77;;;20.70;1.00;;;;;;6279924;28;20245;-58
2022/09/11 13:10:07;;;;;;;5.73;5.40;;;20.60;1.00;;;;;;6272145;28;20630;-61
2022/09/11 13:13:44;;;;;;;5.47;5.17;;;20.60;1.00;;;;;;6284055;28;20233;-58
2022/09/11 13:16:49;;;;;;;5.23;4.93;;;20.60;1.00;;;;;;6278713;28;20233;-58
2022/09/11 13:19:53;;;;;;;5.53;5.23;;;20.60;1.00;;;;;;6281481;28;20233;-58
2022/09/11 13:23:12;;;;;;;4.90;4.70;;;20.60;1.00;;;;;;6277723;28;20243;-61
2022/09/11 13:26:25;;;;;;;5.43;5.03;;;20.50;1.00;;;;;;6281847;28;20585;-58
2022/09/11 13:29:38;;;;;;;5.20;4.90;;;20.50;1.00;;;;;;6271314;28;20733;-58
2022/09/11 13:32:47;;;;;;;5.20;5.00;;;20.40;1.00;;;;;;6277533;28;20225;-57
2022/09/11 13:35:50;;;;;;;5.17;4.97;;;20.50;1.00;;;;;;6271865;28;20245;-58
2022/09/11 13:38:56;;;;;;;5.27;5.07;;;20.50;1.00;;;;;;6272597;28;20241;-58
2022/09/11 13:42:02;;;;;;;5.23;5.03;;;20.60;1.00;;;;;;6272090;28;20236;-58
2022/09/11 13:45:07;;;;;;;5.60;5.30;;;20.70;1.00;;;;;;6268756;28;20233;-59
2022/09/11 13:48:20;;;;;;;5.67;5.40;;;20.70;1.00;;;;;;6277255;28;20413;-59
2022/09/11 13:51:28;;;;;;;5.10;4.63;;;20.80;1.00;;;;;;6272652;28;20456;-58
2022/09/11 13:54:41;;;;;;;4.93;4.80;;;20.80;1.00;;;;;;6281072;28;20237;-59
2022/09/11 13:57:52;;;;;;;4.90;4.70;;;20.70;1.00;;;;;;6275480;28;20240;-58
2022/09/11 14:00:55;;;;;;;4.87;4.67;;;20.70;1.00;;;;;;6278617;28;20625;-58
2022/09/11 14:03:59;;;;;;;4.90;4.70;;;20.70;1.00;;;;;;6275706;28;20352;-58
2022/09/11 14:07:02;;;;;;;4.37;4.27;;;20.80;1.00;;;;;;6281053;28;20280;-60
2022/09/11 14:10:08;;;;;;;4.10;4.00;;;20.80;1.00;;;;;;6279913;28;20235;-58
2022/09/11 14:13:21;;;;;;;4.23;3.97;;;20.80;1.00;;;;;;6279876;28;20226;-59
2022/09/11 14:16:30;;;;;;;3.90;3.77;;;20.80;1.00;;;;;;6268458;28;20388;-58
2022/09/11 14:19:36;;;;;;;4.27;4.07;;;20.90;1.00;;;;;;6270515;28;20237;-58
2022/09/11 14:22:39;;;;;;;4.23;3.93;;;21.10;1.00;;;;;;6273425;28;20253;-58
2022/09/11 14:26:02;;;;;;;3.93;3.77;;;21.20;1.00;;;;;;6280139;28;20226;-58
2022/09/11 14:29:06;;;;;;;5.03;3.77;;;21.40;1.00;;;;;;6277878;28;20233;-59
2022/09/11 14:32:31;;;;;;;3.97;3.73;;;21.40;1.00;;;;;;6273811;28;21061;-59
2022/09/11 14:35:37;;;;;;;3.97;3.77;;;21.60;1.00;;;;;;6267755;28;20241;-56
2022/09/11 14:38:42;;;;;;;3.97;3.87;;;21.60;1.00;;;;;;6275271;28;20233;-55
2022/09/11 14:41:45;;;;;;;4.10;3.90;;;21.60;1.00;;;;;;6278284;28;20237;-53
2022/09/11 14:44:48;;;;;;;3.87;3.67;;;21.70;1.00;;;;;;6275463;28;20252;-56
2022/09/11 14:47:52;;;;;;;3.50;3.40;;;21.70;1.00;;;;;;6280157;28;20248;-57
2022/09/11 14:50:56;;;;;;;3.43;3.30;;;21.80;1.00;;;;;;6276909;28;20245;-57
2022/09/11 14:53:59;;;;;;;4.03;3.83;;;21.80;1.00;;;;;;6276358;28;20241;-57
2022/09/11 14:57:02;;;;;;;3.40;3.30;;;21.90;1.00;;;;;;6281192;28;20612;-57
2022/09/11 15:00:10;;;;;;;3.97;3.60;;;21.90;1.00;;;;;;6279576;28;20597;-59
2022/09/11 15:03:13;;;;;;;4.00;3.73;;;21.90;1.00;;;;;;6273807;28;20234;-59
2022/09/11 15:06:21;;;;;;;3.70;3.50;;;21.70;1.00;;;;;;6277723;28;20776;-57
2022/09/11 15:09:24;;;;;;;3.97;3.77;;;21.60;1.00;;;;;;6274130;28;20233;-58
2022/09/11 15:12:35;;;;;;;3.87;3.77;;;21.40;1.00;;;;;;6274494;28;20244;-57
2022/09/11 15:15:38;;;;;;;3.90;3.70;;;21.20;1.00;;;;;;6272440;28;20272;-58
2022/09/11 15:18:40;;;;;;;3.93;3.83;;;21.00;1.00;;;;;;6278762;28;20457;-58
2022/09/11 15:21:46;;;;;;;4.27;4.07;;;20.90;1.00;;;;;;6273277;28;20241;-57
2022/09/11 15:24:49;;;;;;;4.33;4.23;;;20.70;1.00;;;;;;6277523;28;20328;-57
2022/09/11 15:27:53;;;;;;;4.50;4.40;;;20.60;1.00;;;;;;6273613;28;20656;-59
2022/09/11 15:30:58;;;;;;;5.37;5.07;;;20.50;1.00;;;;;;6279820;28;21050;-59
2022/09/11 15:34:06;;;;;;;5.23;4.90;;;20.50;1.00;;;;;;6275595;28;20226;-59
2022/09/11 15:37:10;;;;;;;4.73;4.57;;;20.40;1.00;;;;;;6271132;28;20217;-57
2022/09/11 15:40:14;;;;;;;5.07;4.77;;;20.30;1.00;;;;;;6276652;28;20238;-57
2022/09/11 15:43:17;;;;;;;4.33;4.23;;;20.10;1.00;;;;;;6281618;28;20240;-55
2022/09/11 15:46:21;;;;;;;4.33;4.13;;;20.10;1.00;;;;;;6272817;28;20230;-58
2022/09/11 15:49:26;;;;;;;4.20;4.10;;;20.00;1.00;;;;;;6280580;28;20225;-56
2022/09/11 15:52:32;;;;;;;4.80;4.60;;;19.80;1.00;;;;;;6279990;28;20241;-57
2022/09/11 15:55:35;;;;;;;3.93;3.80;;;19.70;1.00;;;;;;6280823;28;20244;-58
2022/09/11 15:58:39;;;;;;;4.10;4.00;;;19.60;1.00;;;;;;6276780;28;20237;-59
2022/09/11 16:01:43;;;;;;;4.37;4.07;;;19.60;1.00;;;;;;6278493;28;20246;-57
2022/09/11 16:04:47;;;;;;;7.53;4.03;;;19.50;1.00;;;;;;6276805;28;20472;-56
2022/09/11 16:07:57;;;;;;;4.03;3.80;;;19.40;1.00;;;;;;6277042;28;20226;-58
2022/09/11 16:11:03;;;;;;;3.97;3.60;;;19.40;1.00;;;;;;6282645;28;20225;-57
2022/09/11 16:14:16;;;;;;;3.80;3.50;;;19.40;1.00;;;;;;6280639;28;20604;-56
2022/09/11 16:17:20;;;;;;;3.20;3.10;;;19.30;1.00;;;;;;6281806;28;20236;-57